RYR35TJ EIDW-EGNM
Flight info
| Callsign | RYR35TJ |
|---|---|
| Flight time | 0h 37m |
| Altitude | 23000 |
| Route | BOFUM Q37 MALUD UL975 WAL DCT POL |
| Aircraft | B738/M-SDE3FGILRWY/SB1 |
Departure
| Time | 2026-05-04 17:38 |
|---|---|
| Airport | Dublin Airport (EIDW) |
Arrival
| Time | 2026-05-04 18:15 |
|---|---|
| Airport | Leeds Bradford Airport (EGNM) |
| Time | Latitude | Longitude | Altitude | Speed | Heading |
|---|---|---|---|---|---|
| 2026-05-04 17:07 | 53.43127 | -6.25088 | 210 ft | 0 kts | 185° |
| 2026-05-04 17:29 | 53.43169 | -6.25081 | 213 ft | 4 kts | 185° |
| 2026-05-04 17:29 | 53.43198 | -6.25013 | 217 ft | 1 kts | 275° |
| 2026-05-04 17:30 | 53.43198 | -6.25012 | 217 ft | 0 kts | 275° |
| 2026-05-04 17:31 | 53.43198 | -6.25014 | 217 ft | 1 kts | 275° |
| 2026-05-04 17:32 | 53.43207 | -6.25288 | 210 ft | 18 kts | 259° |
| 2026-05-04 17:33 | 53.43037 | -6.25420 | 214 ft | 17 kts | 156° |
| 2026-05-04 17:33 | 53.42919 | -6.25368 | 213 ft | 18 kts | 201° |
| 2026-05-04 17:34 | 53.42636 | -6.25727 | 215 ft | 18 kts | 158° |
| 2026-05-04 17:34 | 53.42524 | -6.25717 | 215 ft | 17 kts | 218° |
| 2026-05-04 17:35 | 53.42271 | -6.26404 | 212 ft | 26 kts | 276° |
| 2026-05-04 17:35 | 53.42304 | -6.26973 | 210 ft | 24 kts | 276° |
| 2026-05-04 17:35 | 53.42320 | -6.27292 | 210 ft | 29 kts | 275° |
| 2026-05-04 17:36 | 53.42339 | -6.27620 | 217 ft | 27 kts | 275° |
| 2026-05-04 17:36 | 53.42356 | -6.27925 | 216 ft | 23 kts | 275° |
| 2026-05-04 17:36 | 53.42357 | -6.28093 | 210 ft | 13 kts | 244° |
| 2026-05-04 17:36 | 53.42286 | -6.28095 | 213 ft | 12 kts | 134° |
| 2026-05-04 17:37 | 53.42243 | -6.27972 | 210 ft | 12 kts | 119° |
| 2026-05-04 17:37 | 53.42188 | -6.27939 | 211 ft | 5 kts | 143° |
| 2026-05-04 17:37 | 53.42182 | -6.27905 | 211 ft | 0 kts | 96° |
| 2026-05-04 17:37 | 53.42181 | -6.27879 | 211 ft | 13 kts | 96° |
| 2026-05-04 17:38 | 53.42147 | -6.27277 | 212 ft | 89 kts | 95° |
| 2026-05-04 17:38 | 53.42071 | -6.25862 | 218 ft | 151 kts | 95° |
| 2026-05-04 17:38 | 53.41960 | -6.24045 | 859 ft | 156 kts | 96° |
| 2026-05-04 17:38 | 53.41838 | -6.22191 | 1597 ft | 169 kts | 95° |
| 2026-05-04 17:39 | 53.41594 | -6.17775 | 2659 ft | 212 kts | 91° |
| 2026-05-04 17:39 | 53.41471 | -6.15302 | 3297 ft | 221 kts | 92° |
| 2026-05-04 17:39 | 53.41329 | -6.12560 | 3569 ft | 253 kts | 92° |
| 2026-05-04 17:40 | 53.41165 | -6.09508 | 4169 ft | 269 kts | 93° |
| 2026-05-04 17:40 | 53.40990 | -6.06351 | 5022 ft | 274 kts | 94° |
| 2026-05-04 17:40 | 53.40968 | -6.03146 | 5860 ft | 277 kts | 76° |
| 2026-05-04 17:40 | 53.41627 | -6.00124 | 6752 ft | 277 kts | 66° |
| 2026-05-04 17:41 | 53.42376 | -5.97114 | 7542 ft | 282 kts | 66° |
| 2026-05-04 17:41 | 53.43128 | -5.94062 | 8377 ft | 285 kts | 66° |
| 2026-05-04 17:41 | 53.43880 | -5.90972 | 8901 ft | 287 kts | 67° |
| 2026-05-04 17:41 | 53.44632 | -5.87850 | 9650 ft | 291 kts | 67° |
| 2026-05-04 17:42 | 53.45390 | -5.84686 | 10425 ft | 295 kts | 67° |
| 2026-05-04 17:42 | 53.46184 | -5.81368 | 10678 ft | 319 kts | 67° |
| 2026-05-04 17:42 | 53.47046 | -5.77796 | 10951 ft | 339 kts | 67° |
| 2026-05-04 17:42 | 53.47943 | -5.74085 | 11585 ft | 346 kts | 67° |
| 2026-05-04 17:43 | 53.48850 | -5.70327 | 12371 ft | 349 kts | 67° |
| 2026-05-04 17:43 | 53.49765 | -5.66525 | 13166 ft | 353 kts | 67° |
| 2026-05-04 17:43 | 53.50687 | -5.62687 | 13970 ft | 357 kts | 68° |
| 2026-05-04 17:43 | 53.51621 | -5.58796 | 14697 ft | 361 kts | 67° |
| 2026-05-04 17:44 | 53.52558 | -5.54883 | 15519 ft | 362 kts | 68° |
| 2026-05-04 17:44 | 53.53464 | -5.50925 | 16335 ft | 364 kts | 72° |
| 2026-05-04 17:44 | 53.53754 | -5.46684 | 17053 ft | 371 kts | 91° |
| 2026-05-04 17:44 | 53.53623 | -5.42328 | 17763 ft | 376 kts | 92° |
| 2026-05-04 17:45 | 53.53476 | -5.37920 | 18465 ft | 379 kts | 92° |
| 2026-05-04 17:45 | 53.53338 | -5.33477 | 19126 ft | 382 kts | 92° |
| 2026-05-04 17:45 | 53.53211 | -5.29001 | 19792 ft | 384 kts | 91° |
| 2026-05-04 17:45 | 53.53093 | -5.24496 | 20452 ft | 387 kts | 91° |
| 2026-05-04 17:46 | 53.52977 | -5.19975 | 21170 ft | 387 kts | 91° |
| 2026-05-04 17:46 | 53.52860 | -5.15474 | 22050 ft | 383 kts | 91° |
| 2026-05-04 17:46 | 53.52730 | -5.11016 | 22769 ft | 383 kts | 92° |
| 2026-05-04 17:46 | 53.52589 | -5.06554 | 23083 ft | 382 kts | 92° |
| 2026-05-04 17:47 | 53.52445 | -5.02090 | 23066 ft | 382 kts | 92° |
| 2026-05-04 17:47 | 53.52301 | -4.97672 | 23068 ft | 376 kts | 92° |
| 2026-05-04 17:47 | 53.52161 | -4.93316 | 23066 ft | 371 kts | 92° |
| 2026-05-04 17:47 | 53.52020 | -4.88990 | 23079 ft | 371 kts | 92° |
| 2026-05-04 17:48 | 53.51877 | -4.84655 | 23084 ft | 373 kts | 92° |
| 2026-05-04 17:48 | 53.51733 | -4.80300 | 23079 ft | 373 kts | 92° |
| 2026-05-04 17:48 | 53.51637 | -4.77414 | 23080 ft | 374 kts | 92° |
| 2026-05-04 17:48 | 53.51440 | -4.71582 | 23075 ft | 374 kts | 92° |
| 2026-05-04 17:49 | 53.51293 | -4.67271 | 23074 ft | 374 kts | 92° |
| 2026-05-04 17:49 | 53.51143 | -4.62912 | 23074 ft | 374 kts | 92° |
| 2026-05-04 17:49 | 53.50991 | -4.58548 | 23073 ft | 374 kts | 92° |
| 2026-05-04 17:49 | 53.50838 | -4.54196 | 23063 ft | 373 kts | 92° |
| 2026-05-04 17:50 | 53.50684 | -4.49851 | 23063 ft | 372 kts | 92° |
| 2026-05-04 17:50 | 53.50528 | -4.45512 | 23069 ft | 371 kts | 92° |
| 2026-05-04 17:50 | 53.50372 | -4.41188 | 23067 ft | 371 kts | 92° |
| 2026-05-04 17:50 | 53.50214 | -4.36866 | 23065 ft | 371 kts | 92° |
| 2026-05-04 17:51 | 53.50054 | -4.32547 | 23068 ft | 370 kts | 92° |
| 2026-05-04 17:51 | 53.49894 | -4.28234 | 23068 ft | 370 kts | 92° |
| 2026-05-04 17:51 | 53.49731 | -4.23921 | 23068 ft | 370 kts | 92° |
| 2026-05-04 17:51 | 53.49567 | -4.19609 | 23070 ft | 370 kts | 92° |
| 2026-05-04 17:52 | 53.49402 | -4.15301 | 23068 ft | 370 kts | 92° |
| 2026-05-04 17:52 | 53.49236 | -4.10985 | 23071 ft | 370 kts | 93° |
| 2026-05-04 17:52 | 53.49068 | -4.06667 | 23070 ft | 371 kts | 93° |
| 2026-05-04 17:52 | 53.48897 | -4.02348 | 23068 ft | 371 kts | 93° |
| 2026-05-04 17:53 | 53.48714 | -3.98027 | 23064 ft | 371 kts | 95° |
| 2026-05-04 17:53 | 53.48230 | -3.93771 | 23059 ft | 372 kts | 106° |
| 2026-05-04 17:53 | 53.47401 | -3.89662 | 22939 ft | 370 kts | 108° |
| 2026-05-04 17:53 | 53.46538 | -3.85625 | 22645 ft | 365 kts | 109° |
| 2026-05-04 17:54 | 53.45686 | -3.81642 | 22380 ft | 360 kts | 109° |
| 2026-05-04 17:54 | 53.44855 | -3.77718 | 22102 ft | 354 kts | 108° |
| 2026-05-04 17:54 | 53.44045 | -3.73844 | 21829 ft | 350 kts | 108° |
| 2026-05-04 17:54 | 53.43248 | -3.70012 | 21570 ft | 346 kts | 108° |
| 2026-05-04 17:55 | 53.42459 | -3.66219 | 21309 ft | 343 kts | 108° |
| 2026-05-04 17:55 | 53.41681 | -3.62445 | 21056 ft | 344 kts | 106° |
| 2026-05-04 17:55 | 53.41178 | -3.58537 | 20783 ft | 342 kts | 95° |
| 2026-05-04 17:55 | 53.40991 | -3.54584 | 20463 ft | 339 kts | 93° |
| 2026-05-04 17:56 | 53.40840 | -3.50659 | 20105 ft | 337 kts | 93° |
| 2026-05-04 17:56 | 53.40689 | -3.46755 | 19754 ft | 335 kts | 94° |
| 2026-05-04 17:56 | 53.40531 | -3.42869 | 19402 ft | 333 kts | 94° |
| 2026-05-04 17:56 | 53.40365 | -3.39001 | 19048 ft | 332 kts | 94° |
| 2026-05-04 17:57 | 53.40195 | -3.35144 | 18692 ft | 331 kts | 94° |
| 2026-05-04 17:57 | 53.40022 | -3.31303 | 18346 ft | 330 kts | 95° |
| 2026-05-04 17:57 | 53.39847 | -3.27465 | 17946 ft | 330 kts | 95° |
| 2026-05-04 17:57 | 53.39671 | -3.23648 | 17574 ft | 328 kts | 95° |
| 2026-05-04 17:58 | 53.39494 | -3.19844 | 17213 ft | 327 kts | 95° |
| 2026-05-04 17:58 | 53.39362 | -3.16054 | 16856 ft | 325 kts | 88° |
| 2026-05-04 17:58 | 53.39624 | -3.13074 | 16618 ft | 323 kts | 75° |
| 2026-05-04 17:58 | 53.40058 | -3.10933 | 16502 ft | 319 kts | 66° |
| 2026-05-04 17:59 | 53.40852 | -3.08321 | 16276 ft | 316 kts | 60° |
| 2026-05-04 17:59 | 53.41951 | -3.05141 | 15946 ft | 317 kts | 59° |
| 2026-05-04 17:59 | 53.44236 | -2.98732 | 15278 ft | 325 kts | 59° |
| 2026-05-04 18:00 | 53.45396 | -2.95454 | 14930 ft | 329 kts | 59° |
| 2026-05-04 18:00 | 53.46564 | -2.92126 | 14573 ft | 331 kts | 59° |
| 2026-05-04 18:00 | 53.47724 | -2.88795 | 14200 ft | 330 kts | 59° |
| 2026-05-04 18:00 | 53.48879 | -2.85465 | 13834 ft | 330 kts | 59° |
| 2026-05-04 18:01 | 53.50030 | -2.82131 | 13425 ft | 330 kts | 59° |
| 2026-05-04 18:01 | 53.51176 | -2.78803 | 13051 ft | 328 kts | 59° |
| 2026-05-04 18:01 | 53.52316 | -2.75486 | 12683 ft | 327 kts | 59° |
| 2026-05-04 18:02 | 53.54205 | -2.69976 | 12081 ft | 325 kts | 59° |
| 2026-05-04 18:02 | 53.54509 | -2.69088 | 11982 ft | 324 kts | 59° |
| 2026-05-04 18:02 | 53.55630 | -2.65811 | 11626 ft | 323 kts | 59° |
| 2026-05-04 18:02 | 53.56745 | -2.62547 | 11288 ft | 321 kts | 59° |
| 2026-05-04 18:03 | 53.57853 | -2.59298 | 10939 ft | 319 kts | 59° |
| 2026-05-04 18:03 | 53.58954 | -2.56064 | 10607 ft | 318 kts | 59° |
| 2026-05-04 18:03 | 53.60048 | -2.52849 | 10281 ft | 316 kts | 59° |
| 2026-05-04 18:03 | 53.61126 | -2.49674 | 10144 ft | 308 kts | 59° |
| 2026-05-04 18:04 | 53.62176 | -2.46581 | 9910 ft | 303 kts | 59° |
| 2026-05-04 18:04 | 53.63220 | -2.43499 | 9576 ft | 302 kts | 59° |
| 2026-05-04 18:04 | 53.65283 | -2.37401 | 8956 ft | 297 kts | 59° |
| 2026-05-04 18:05 | 53.66304 | -2.34378 | 8643 ft | 296 kts | 59° |
| 2026-05-04 18:05 | 53.67317 | -2.31372 | 8341 ft | 294 kts | 59° |
| 2026-05-04 18:05 | 53.68323 | -2.28384 | 8039 ft | 292 kts | 59° |
| 2026-05-04 18:05 | 53.69324 | -2.25411 | 7736 ft | 291 kts | 59° |
| 2026-05-04 18:06 | 53.71306 | -2.19510 | 7148 ft | 287 kts | 59° |
| 2026-05-04 18:06 | 53.72288 | -2.16582 | 6864 ft | 286 kts | 59° |
| 2026-05-04 18:06 | 53.73264 | -2.13667 | 6551 ft | 285 kts | 59° |
| 2026-05-04 18:07 | 53.74279 | -2.10804 | 6238 ft | 284 kts | 51° |
| 2026-05-04 18:07 | 53.75222 | -2.09294 | 6014 ft | 281 kts | 33° |
| 2026-05-04 18:07 | 53.76848 | -2.07506 | 5734 ft | 278 kts | 31° |
| 2026-05-04 18:07 | 53.78473 | -2.05753 | 5440 ft | 276 kts | 31° |
| 2026-05-04 18:08 | 53.80084 | -2.04009 | 5165 ft | 274 kts | 31° |
| 2026-05-04 18:08 | 53.81648 | -2.02305 | 5162 ft | 260 kts | 31° |
| 2026-05-04 18:08 | 53.83132 | -2.00679 | 5160 ft | 248 kts | 31° |
| 2026-05-04 18:08 | 53.84554 | -1.99116 | 4935 ft | 241 kts | 31° |
| 2026-05-04 18:09 | 53.87294 | -1.96096 | 4404 ft | 229 kts | 31° |
| 2026-05-04 18:09 | 53.89896 | -1.93220 | 3892 ft | 215 kts | 31° |
| 2026-05-04 18:10 | 53.91119 | -1.91866 | 3644 ft | 206 kts | 31° |
| 2026-05-04 18:10 | 53.92297 | -1.90561 | 3379 ft | 199 kts | 31° |
| 2026-05-04 18:10 | 53.93439 | -1.89294 | 3105 ft | 193 kts | 31° |
| 2026-05-04 18:10 | 53.94530 | -1.88082 | 2980 ft | 181 kts | 31° |
| 2026-05-04 18:11 | 53.95542 | -1.86956 | 2945 ft | 170 kts | 30° |
| 2026-05-04 18:11 | 53.96537 | -1.85839 | 2957 ft | 173 kts | 34° |
| 2026-05-04 18:11 | 53.97189 | -1.84174 | 2935 ft | 173 kts | 83° |
| 2026-05-04 18:11 | 53.96840 | -1.82297 | 2956 ft | 171 kts | 134° |
| 2026-05-04 18:12 | 53.96041 | -1.80802 | 2954 ft | 177 kts | 130° |
| 2026-05-04 18:12 | 53.95193 | -1.79238 | 2958 ft | 179 kts | 140° |
| 2026-05-04 18:12 | 53.94257 | -1.77837 | 2909 ft | 181 kts | 140° |
| 2026-05-04 18:12 | 53.93315 | -1.76407 | 2632 ft | 181 kts | 139° |
| 2026-05-04 18:13 | 53.92384 | -1.74976 | 2358 ft | 180 kts | 139° |
| 2026-05-04 18:13 | 53.91469 | -1.73568 | 2071 ft | 174 kts | 140° |
| 2026-05-04 18:13 | 53.89771 | -1.70954 | 1536 ft | 157 kts | 140° |
| 2026-05-04 18:14 | 53.88979 | -1.69735 | 1294 ft | 151 kts | 139° |
| 2026-05-04 18:14 | 53.88232 | -1.68579 | 1051 ft | 147 kts | 140° |
| 2026-05-04 18:14 | 53.87482 | -1.67424 | 816 ft | 145 kts | 140° |
| 2026-05-04 18:15 | 53.86165 | -1.65401 | 679 ft | 83 kts | 139° |
| 2026-05-04 18:15 | 53.85884 | -1.64939 | 663 ft | 7 kts | 230° |
| 2026-05-04 18:15 | 53.85907 | -1.65004 | 663 ft | 8 kts | 318° |
| 2026-05-04 18:16 | 53.85967 | -1.65097 | 670 ft | 15 kts | 317° |
| 2026-05-04 18:16 | 53.86049 | -1.65223 | 674 ft | 17 kts | 318° |
| 2026-05-04 18:16 | 53.86154 | -1.65385 | 680 ft | 19 kts | 318° |
| 2026-05-04 18:17 | 53.86412 | -1.65448 | 673 ft | 21 kts | 2° |
| 2026-05-04 18:17 | 53.86585 | -1.65428 | 664 ft | 27 kts | 4° |
| 2026-05-04 18:17 | 53.86813 | -1.65466 | 662 ft | 11 kts | 276° |
| 2026-05-04 18:18 | 53.86816 | -1.65591 | 663 ft | 10 kts | 271° |
| 2026-05-04 18:18 | 53.86817 | -1.65677 | 663 ft | 2 kts | 271° |
| 2026-05-04 18:18 | 53.86817 | -1.65679 | 663 ft | 0 kts | 271° |
| 2026-05-04 18:19 | 53.86823 | -1.65749 | 664 ft | 5 kts | 313° |
| 2026-05-04 18:19 | 53.86855 | -1.65761 | 664 ft | 5 kts | 359° |
| 2026-05-04 18:19 | 53.86878 | -1.65760 | 664 ft | 1 kts | 1° |
| 2026-05-04 18:20 | 53.86884 | -1.65760 | 664 ft | 0 kts | 1° |